Time;durP1;ratioP1;P1;durP2;ratioP2;P2;SDS_P1;SDS_P2;PMS_P1;PMS_P2;Temp;Humidity;BMP_temperature;BMP_pressure;BME280_temperature;BME280_humidity;BME280_pressure;Samples;Min_cycle;Max_cycle;Signal;HPM_P1;HPM_P2
2023/04/11 00:03:18;;;;;;;;;;;;;;;10.18;100.00;100736.09;10456791;28;19932;-64
2023/04/11 00:08:21;;;;;;;;;;;;;;;10.15;100.00;100746.75;10458926;28;19925;-64
2023/04/11 00:13:25;;;;;;;;;;;;;;;10.26;100.00;100746.16;10456177;28;20355;-64
2023/04/11 00:18:27;;;;;;;;;;;;;;;10.14;100.00;100755.53;10456041;28;19928;-64
2023/04/11 00:23:29;;;;;;;;;;;;;;;9.83;100.00;100753.78;10466949;28;20007;-64
2023/04/11 00:28:32;;;;;;;;;;;;;;;9.86;100.00;100745.75;10457256;28;19940;-64
2023/04/11 00:33:34;;;;;;;;;;;;;;;9.70;100.00;100757.97;10471897;28;19974;-65
2023/04/11 00:38:37;;;;;;;;;;;;;;;9.69;100.00;100766.75;10439456;28;19932;-64
2023/04/11 00:43:39;;;;;;;;;;;;;;;9.58;100.00;100759.47;10463065;28;20322;-64
2023/04/11 00:48:41;;;;;;;;;;;;;;;9.54;100.00;100763.19;10463850;28;19925;-64
2023/04/11 00:53:44;;;;;;;;;;;;;;;9.66;100.00;100749.47;10479017;28;19931;-64
2023/04/11 00:58:46;;;;;;;;;;;;;;;9.56;100.00;100756.13;10462959;28;20011;-65
2023/04/11 01:03:48;;;;;;;;;;;;;;;9.57;100.00;100758.66;10481299;28;19924;-64
2023/04/11 01:08:51;;;;;;;;;;;;;;;9.30;100.00;100771.41;10485847;28;19925;-64
2023/04/11 01:13:53;;;;;;;;;;;;;;;9.31;100.00;100762.63;10477601;28;20363;-64
2023/04/11 01:18:55;;;;;;;;;;;;;;;9.38;100.00;100761.41;10468006;28;19924;-65
2023/04/11 01:24:02;;;;;;;;;;;;;;;9.21;100.00;100766.66;10460726;28;19925;-64
2023/04/11 01:29:04;;;;;;;;;;;;;;;9.31;100.00;100762.63;10478714;28;19971;-64
2023/04/11 01:34:06;;;;;;;;;;;;;;;9.47;100.00;100758.28;10461421;28;20265;-65
2023/04/11 01:39:09;;;;;;;;;;;;;;;9.55;100.00;100765.75;10476703;28;20338;-65
2023/04/11 01:44:11;;;;;;;;;;;;;;;9.21;100.00;100757.06;10476858;28;20020;-65
2023/04/11 01:49:17;;;;;;;;;;;;;;;9.16;100.00;100766.06;10477687;28;19924;-65
2023/04/11 01:54:19;;;;;;;;;;;;;;;9.07;100.00;100772.59;10475630;28;19929;-65
2023/04/11 01:59:22;;;;;;;;;;;;;;;8.96;100.00;100778.41;10460905;28;19979;-64
2023/04/11 02:04:24;;;;;;;;;;;;;;;9.04;100.00;100776.19;10461045;28;19924;-65
2023/04/11 02:09:26;;;;;;;;;;;;;;;8.91;100.00;100781.22;10460536;28;19982;-65
2023/04/11 02:14:37;;;;;;;;;;;;;;;8.99;100.00;100790.44;10459819;28;19974;-66
2023/04/11 02:19:44;;;;;;;;;;;;;;;8.68;100.00;100795.44;10460403;28;19931;-65
2023/04/11 02:24:46;;;;;;;;;;;;;;;8.83;100.00;100787.75;10473979;28;19974;-64
2023/04/11 02:29:48;;;;;;;;;;;;;;;8.67;100.00;100793.72;10459752;28;19928;-64
2023/04/11 02:34:50;;;;;;;;;;;;;;;8.77;100.00;100782.84;10458987;28;20272;-64
2023/04/11 02:39:54;;;;;;;;;;;;;;;8.58;100.00;100780.31;10458395;28;20394;-64
2023/04/11 02:44:56;;;;;;;;;;;;;;;8.67;100.00;100777.22;10474734;28;19924;-64
2023/04/11 02:49:58;;;;;;;;;;;;;;;8.84;100.00;100790.31;10459265;28;19925;-65
2023/04/11 02:55:00;;;;;;;;;;;;;;;8.64;100.00;100787.81;10458811;28;19929;-65
2023/04/11 03:00:06;;;;;;;;;;;;;;;8.52;100.00;100789.25;10486464;28;20027;-65
2023/04/11 03:05:08;;;;;;;;;;;;;;;8.45;100.00;100787.88;10499075;28;19932;-65
2023/04/11 03:10:10;;;;;;;;;;;;;;;8.34;100.00;100791.81;10455073;28;19975;-64
2023/04/11 03:15:14;;;;;;;;;;;;;;;8.50;100.00;100801.53;10457855;28;19925;-65
2023/04/11 03:20:18;;;;;;;;;;;;;;;8.51;100.00;100798.88;10458079;28;19960;-65
2023/04/11 03:25:21;;;;;;;;;;;;;;;8.76;100.00;100813.34;10487159;28;19940;-64
2023/04/11 03:30:23;;;;;;;;;;;;;;;8.62;100.00;100810.53;10471403;28;19930;-64
2023/04/11 03:35:26;;;;;;;;;;;;;;;8.59;100.00;100808.94;10457410;28;19924;-64
2023/04/11 03:40:28;;;;;;;;;;;;;;;8.40;100.00;100816.75;10456954;28;19925;-64
2023/04/11 03:45:30;;;;;;;;;;;;;;;8.48;100.00;100826.88;10472828;28;19936;-64
2023/04/11 03:50:32;;;;;;;;;;;;;;;8.44;100.00;100831.41;10458876;28;19925;-65
2023/04/11 03:55:35;;;;;;;;;;;;;;;8.50;100.00;100848.53;10457167;28;19925;-64
2023/04/11 04:00:39;;;;;;;;;;;;;;;8.57;100.00;100854.28;10457177;28;19925;-65
2023/04/11 04:05:41;;;;;;;;;;;;;;;8.43;100.00;100854.97;10457680;28;19925;-65
2023/04/11 04:10:43;;;;;;;;;;;;;;;8.40;100.00;100862.88;10456933;28;19925;-65
2023/04/11 04:15:46;;;;;;;;;;;;;;;8.51;100.00;100873.72;10460818;28;19925;-64
2023/04/11 04:20:48;;;;;;;;;;;;;;;8.46;99.24;100865.25;10463972;28;20003;-64
2023/04/11 04:25:50;;;;;;;;;;;;;;;8.37;98.44;100869.09;10487571;28;20302;-64
2023/04/11 04:30:53;;;;;;;;;;;;;;;8.43;98.54;100874.06;10456569;28;19925;-64
2023/04/11 04:35:58;;;;;;;;;;;;;;;8.83;96.21;100889.59;10463918;28;19925;-65
2023/04/11 04:41:01;;;;;;;;;;;;;;;8.55;97.50;100891.72;10463596;28;20292;-65
2023/04/11 04:46:03;;;;;;;;;;;;;;;8.64;96.58;100892.22;10463936;28;19928;-65
2023/04/11 04:51:05;;;;;;;;;;;;;;;8.46;96.63;100894.78;10463248;28;20292;-64
2023/04/11 04:56:08;;;;;;;;;;;;;;;8.50;96.25;100909.38;10463549;28;19929;-65
2023/04/11 05:01:10;;;;;;;;;;;;;;;8.18;97.60;100905.63;10463469;28;19933;-65
2023/04/11 05:06:12;;;;;;;;;;;;;;;8.32;96.02;100903.25;10462962;28;19924;-64
2023/04/11 05:11:14;;;;;;;;;;;;;;;8.33;96.82;100914.50;10472877;28;19975;-64
2023/04/11 05:16:17;;;;;;;;;;;;;;;8.51;95.21;100923.28;10462432;28;19978;-65
2023/04/11 05:21:19;;;;;;;;;;;;;;;8.33;95.34;100932.78;10462006;28;20383;-64
2023/04/11 05:26:21;;;;;;;;;;;;;;;8.17;95.86;100943.91;10460818;28;19925;-65
2023/04/11 05:31:27;;;;;;;;;;;;;;;8.31;95.39;100943.28;10480549;28;19924;-65
2023/04/11 05:36:30;;;;;;;;;;;;;;;8.15;94.74;100957.91;10503591;28;19978;-64
2023/04/11 05:41:32;;;;;;;;;;;;;;;8.26;93.89;100962.66;10483169;28;19931;-65
2023/04/11 05:46:35;;;;;;;;;;;;;;;8.21;92.78;100970.69;10461128;28;20318;-65
2023/04/11 05:51:38;;;;;;;;;;;;;;;8.11;90.67;100979.84;10496742;28;19940;-65
2023/04/11 05:56:41;;;;;;;;;;;;;;;8.25;90.21;100993.09;10502176;28;19932;-65
2023/04/11 06:01:43;;;;;;;;;;;;;;;8.08;89.59;100988.63;10493847;28;19931;-65
2023/04/11 06:06:45;;;;;;;;;;;;;;;8.35;88.36;100991.81;10470606;28;19925;-64
2023/04/11 06:11:48;;;;;;;;;;;;;;;8.27;89.54;100996.50;10460905;28;19925;-64
2023/04/11 06:16:50;;;;;;;;;;;;;;;8.46;88.47;101001.78;10463127;28;20281;-65
2023/04/11 06:21:52;;;;;;;;;;;;;;;8.51;88.05;101002.41;10531867;28;19925;-64
2023/04/11 06:26:55;;;;;;;;;;;;;;;8.55;88.28;101003.09;10467530;28;19925;-65
2023/04/11 06:31:57;;;;;;;;;;;;;;;8.51;88.13;101018.06;10471852;28;19928;-65
2023/04/11 06:36:59;;;;;;;;;;;;;;;8.78;87.61;101017.72;10483115;28;19928;-64
2023/04/11 06:42:02;;;;;;;;;;;;;;;8.96;88.29;101016.03;10500120;28;19931;-64
2023/04/11 06:47:04;;;;;;;;;;;;;;;9.02;87.80;101025.31;10441861;28;19932;-64
2023/04/11 06:52:06;;;;;;;;;;;;;;;9.23;88.19;101029.53;10458391;28;19925;-64
2023/04/11 06:57:09;;;;;;;;;;;;;;;9.53;85.37;101034.19;10441260;28;19924;-64
2023/04/11 07:02:11;;;;;;;;;;;;;;;9.97;84.28;101040.72;10485428;28;19933;-65
2023/04/11 07:07:14;;;;;;;;;;;;;;;9.86;83.62;101036.03;10475773;28;19924;-65
2023/04/11 07:12:16;;;;;;;;;;;;;;;9.38;85.97;101056.69;10459453;28;21467;-65
2023/04/11 07:17:18;;;;;;;;;;;;;;;8.33;100.00;101077.09;10463451;28;19924;-65
2023/04/11 07:22:21;;;;;;;;;;;;;;;8.25;100.00;101068.75;10475002;28;19985;-65
2023/04/11 07:27:25;;;;;;;;;;;;;;;8.18;98.16;101073.38;10426440;28;19937;-66
2023/04/11 07:32:27;;;;;;;;;;;;;;;8.85;96.41;101065.28;10449879;28;19932;-66
2023/04/11 07:37:30;;;;;;;;;;;;;;;9.02;94.98;101072.34;10497126;28;19925;-65
2023/04/11 07:42:33;;;;;;;;;;;;;;;9.83;90.73;101063.19;10486424;28;19925;-66
2023/04/11 07:47:35;;;;;;;;;;;;;;;10.35;88.00;101078.03;10481708;28;19932;-65
2023/04/11 07:52:37;;;;;;;;;;;;;;;10.22;85.91;101074.31;10458040;28;19925;-65
2023/04/11 07:57:39;;;;;;;;;;;;;;;11.27;85.59;101074.00;10456937;28;19979;-65
2023/04/11 08:02:41;;;;;;;;;;;;;;;11.31;81.95;101080.75;10457029;28;19925;-65
2023/04/11 08:07:44;;;;;;;;;;;;;;;10.78;85.71;101080.16;10456571;28;19972;-65
2023/04/11 08:12:46;;;;;;;;;;;;;;;10.83;83.49;101090.41;10456919;28;19925;-65
2023/04/11 08:17:48;;;;;;;;;;;;;;;10.71;84.16;101105.84;10438631;28;19929;-65
2023/04/11 08:22:50;;;;;;;;;;;;;;;10.57;82.55;101116.16;10456793;28;19983;-65
2023/04/11 08:27:53;;;;;;;;;;;;;;;10.78;80.26;101115.03;10455992;28;19929;-65
2023/04/11 08:32:55;;;;;;;;;;;;;;;9.95;82.55;101114.06;10456523;28;19925;-65
2023/04/11 08:37:57;;;;;;;;;;;;;;;11.21;78.21;101124.97;10456499;28;19979;-65
2023/04/11 08:42:59;;;;;;;;;;;;;;;11.99;76.22;101138.13;10455751;28;19925;-65
2023/04/11 08:48:02;;;;;;;;;;;;;;;10.85;73.46;101126.03;10471696;28;19929;-65
2023/04/11 08:53:04;;;;;;;;;;;;;;;11.94;73.94;101142.78;10470918;28;19950;-66
2023/04/11 08:58:06;;;;;;;;;;;;;;;12.11;69.77;101154.09;10455457;28;20276;-66
2023/04/11 09:03:09;;;;;;;;;;;;;;;12.60;66.31;101146.78;10460587;28;19924;-65
2023/04/11 09:08:12;;;;;;;;;;;;;;;13.07;64.01;101143.97;10478632;28;19932;-65
2023/04/11 09:13:22;;;;;;;;;;;;;;;13.27;63.68;101134.81;10463019;28;19971;-66
2023/04/11 09:18:35;;;;;;;;;;;;;;;13.02;61.32;101147.72;10462042;28;20376;-64
2023/04/11 09:23:37;;;;;;;;;;;;;;;12.75;60.14;101150.25;10477989;28;19929;-66
2023/04/11 09:28:41;;;;;;;;;;;;;;;13.94;61.63;101151.53;10461859;28;20293;-66
2023/04/11 09:33:53;;;;;;;;;;;;;;;14.96;59.49;101143.81;10462170;28;19929;-66
2023/04/11 09:38:56;;;;;;;;;;;;;;;14.09;57.53;101148.84;10461649;28;20003;-65
2023/04/11 09:43:59;;;;;;;;;;;;;;;13.40;57.49;101153.31;10477323;28;19925;-65
2023/04/11 09:49:01;;;;;;;;;;;;;;;13.37;58.37;101157.00;10497140;28;19925;-66
2023/04/11 09:54:04;;;;;;;;;;;;;;;14.24;57.04;101152.22;10484475;28;19925;-66
2023/04/11 09:59:07;;;;;;;;;;;;;;;13.91;57.27;101151.72;10484092;28;19924;-66
2023/04/11 10:04:13;;;;;;;;;;;;;;;15.10;56.38;101156.06;10468139;28;19978;-66
2023/04/11 10:09:15;;;;;;;;;;;;;;;15.49;57.81;101146.22;10502257;28;19924;-67
2023/04/11 10:14:47;;;;;;;;;;;;;;;14.78;56.39;101167.06;10483415;28;19954;-67
2023/04/11 10:19:53;;;;;;;;;;;;;;;14.79;53.61;101168.72;10476660;28;20371;-67
2023/04/11 10:25:13;;;;;;;;;;;;;;;14.98;54.91;101170.94;10483985;28;19928;-67
2023/04/11 10:30:15;;;;;;;;;;;;;;;16.39;48.86;101162.47;10508235;22;19994;-70
2023/04/11 10:35:19;;;;;;;;;;;;;;;17.77;50.73;101148.06;10501156;28;19924;-70
2023/04/11 10:40:22;;;;;;;;;;;;;;;17.22;48.21;101189.59;10500401;28;20291;-69
2023/04/11 10:45:25;;;;;;;;;;;;;;;15.76;49.10;101183.00;10500847;28;19974;-71
2023/04/11 10:50:32;;;;;;;;;;;;;;;15.85;49.75;101176.19;10499973;28;20321;-70
2023/04/11 10:55:45;;;;;;;;;;;;;;;16.47;48.49;101183.84;10499693;28;19947;-71
2023/04/11 11:00:50;;;;;;;;;;;;;;;18.93;49.60;101165.72;10499085;28;19929;-70
2023/04/11 11:06:01;;;;;;;;;;;;;;;18.14;47.08;101183.91;10500068;28;19970;-71
2023/04/11 11:11:05;;;;;;;;;;;;;;;16.63;47.44;101188.81;10498888;28;19931;-70
2023/04/11 11:16:07;;;;;;;;;;;;;;;17.15;48.00;101191.03;10498524;28;19924;-71
2023/04/11 11:21:10;;;;;;;;;;;;;;;16.28;48.58;101196.78;10497893;28;19931;-70
2023/04/11 11:26:18;;;;;;;;;;;;;;;16.55;47.75;101188.53;10498746;28;19939;-70
2023/04/11 11:31:20;;;;;;;;;;;;;;;17.45;44.49;101206.28;10497739;28;19925;-70
2023/04/11 11:36:22;;;;;;;;;;;;;;;17.64;47.81;101182.63;10499092;28;19925;-71
2023/04/11 11:41:26;;;;;;;;;;;;;;;18.46;43.98;101183.88;10497922;28;19925;-71
2023/04/11 11:46:35;;;;;;;;;;;;;;;17.80;44.48;101199.91;10497851;28;19928;-70
2023/04/11 11:51:40;;;;;;;;;;;;;;;18.63;41.45;101197.53;10482050;28;19924;-70
2023/04/11 11:56:47;;;;;;;;;;;;;;;20.47;41.61;101198.06;10497553;28;19928;-71
2023/04/11 12:01:50;;;;;;;;;;;;;;;15.81;43.47;101214.34;10496909;28;19975;-70
2023/04/11 12:06:53;;;;;;;;;;;;;;;17.35;44.54;101231.78;10497389;28;20015;-71
2023/04/11 12:11:55;;;;;;;;;;;;;;;17.75;42.14;101224.16;10497299;28;19924;-70
2023/04/11 12:16:58;;;;;;;;;;;;;;;18.30;43.50;101223.25;10497748;28;19925;-71
2023/04/11 12:22:00;;;;;;;;;;;;;;;17.21;42.59;101227.56;10497096;28;19931;-70
2023/04/11 12:27:03;;;;;;;;;;;;;;;15.41;45.93;101216.19;10498263;28;19936;-70
2023/04/11 12:32:08;;;;;;;;;;;;;;;18.98;43.92;101213.09;10497474;28;19979;-71
2023/04/11 12:37:10;;;;;;;;;;;;;;;20.03;40.58;101209.16;10501044;28;19929;-71
2023/04/11 12:42:12;;;;;;;;;;;;;;;18.96;40.85;101219.47;10505075;28;20406;-71
2023/04/11 12:47:17;;;;;;;;;;;;;;;20.00;39.79;101217.41;10504903;28;20433;-71
2023/04/11 12:52:20;;;;;;;;;;;;;;;19.52;39.76;101221.66;10505361;28;19924;-70
2023/04/11 12:57:22;;;;;;;;;;;;;;;16.60;38.91;101230.50;10505088;28;19928;-69
2023/04/11 13:02:25;;;;;;;;;;;;;;;21.54;37.78;101220.84;10503772;28;19924;-70
2023/04/11 13:07:28;;;;;;;;;;;;;;;19.90;35.79;101216.56;10504751;28;19929;-71
2023/04/11 13:12:32;;;;;;;;;;;;;;;20.88;38.98;101222.63;10503964;28;19924;-71
2023/04/11 13:17:35;;;;;;;;;;;;;;;20.04;38.52;101211.69;10504281;28;19924;-69
2023/04/11 13:22:40;;;;;;;;;;;;;;;21.20;36.48;101214.25;10503047;28;19924;-71
2023/04/11 13:27:43;;;;;;;;;;;;;;;20.55;35.46;101222.13;10504061;28;19932;-71
2023/04/11 13:32:45;;;;;;;;;;;;;;;20.59;35.19;101220.84;10503046;28;19925;-71
2023/04/11 13:37:48;;;;;;;;;;;;;;;19.74;38.85;101201.16;10503597;28;20018;-71
2023/04/11 13:42:51;;;;;;;;;;;;;;;18.93;36.72;101221.44;10503443;28;19924;-72
2023/04/11 13:47:53;;;;;;;;;;;;;;;19.67;40.54;101211.50;10502403;28;19932;-71
2023/04/11 13:52:56;;;;;;;;;;;;;;;17.36;41.09;101214.94;10501802;28;19971;-71
2023/04/11 13:57:58;;;;;;;;;;;;;;;20.38;36.51;101202.44;10502870;28;20015;-71
2023/04/11 14:03:01;;;;;;;;;;;;;;;19.38;39.32;101214.88;10502019;28;19925;-71
2023/04/11 14:08:03;;;;;;;;;;;;;;;20.77;39.25;101199.69;10501799;28;20287;-71
2023/04/11 14:13:06;;;;;;;;;;;;;;;20.10;37.84;101193.50;10500988;28;19925;-71
2023/04/11 14:18:08;;;;;;;;;;;;;;;21.22;38.08;101196.28;10501389;28;20371;-71
2023/04/11 14:23:12;;;;;;;;;;;;;;;20.78;38.87;101190.75;10501785;28;19970;-71
2023/04/11 14:28:15;;;;;;;;;;;;;;;21.59;37.72;101189.25;10501562;28;19924;-71
2023/04/11 14:33:17;;;;;;;;;;;;;;;20.10;35.47;101186.34;10499421;28;19931;-71
2023/04/11 14:38:19;;;;;;;;;;;;;;;20.21;36.07;101177.41;10500524;28;19947;-71
2023/04/11 14:43:22;;;;;;;;;;;;;;;21.20;36.15;101170.78;10500349;28;19951;-72
2023/04/11 14:48:25;;;;;;;;;;;;;;;20.17;38.00;101168.00;10500000;28;19924;-72
2023/04/11 14:53:27;;;;;;;;;;;;;;;18.97;39.47;101163.63;10498616;28;19925;-72
2023/04/11 14:58:29;;;;;;;;;;;;;;;21.12;37.50;101160.91;10499836;28;19925;-72
2023/04/11 15:03:31;;;;;;;;;;;;;;;20.20;34.69;101151.78;10499590;28;19929;-73
2023/04/11 15:08:34;;;;;;;;;;;;;;;20.50;38.23;101145.41;10500030;28;19950;-72
2023/04/11 15:13:36;;;;;;;;;;;;;;;20.91;37.28;101143.34;10499237;28;19970;-72
2023/04/11 15:18:39;;;;;;;;;;;;;;;19.06;37.73;101130.16;10499042;28;19932;-73
2023/04/11 15:23:42;;;;;;;;;;;;;;;19.64;41.04;101124.94;10499550;28;19950;-73
2023/04/11 15:28:44;;;;;;;;;;;;;;;20.51;35.90;101127.63;10498605;28;20368;-72
2023/04/11 15:33:48;;;;;;;;;;;;;;;20.25;35.70;101122.97;10499195;28;19924;-72
2023/04/11 15:38:52;;;;;;;;;;;;;;;20.36;36.84;101125.44;10491824;28;20221;-72
2023/04/11 15:43:55;;;;;;;;;;;;;;;19.48;35.92;101117.53;10497253;28;20268;-72
2023/04/11 15:48:57;;;;;;;;;;;;;;;21.84;36.37;101099.72;10498371;28;20115;-72
2023/04/11 15:54:00;;;;;;;;;;;;;;;21.45;35.24;101103.50;10496155;28;20319;-72
2023/04/11 15:59:02;;;;;;;;;;;;;;;20.72;35.32;101114.16;10494568;28;19929;-72
2023/04/11 16:04:04;;;;;;;;;;;;;;;20.82;37.98;101108.81;10498653;28;19928;-72
2023/04/11 16:09:07;;;;;;;;;;;;;;;18.87;36.95;101101.75;10496571;28;19931;-73
2023/04/11 16:14:10;;;;;;;;;;;;;;;19.42;39.43;101091.53;10505775;28;19924;-73
2023/04/11 16:19:12;;;;;;;;;;;;;;;19.85;39.54;101090.31;10504606;28;19928;-72
2023/04/11 16:24:14;;;;;;;;;;;;;;;19.43;37.57;101081.72;10504311;28;19970;-72
2023/04/11 16:29:17;;;;;;;;;;;;;;;17.87;36.96;101081.97;10506058;28;19932;-72
2023/04/11 16:34:19;;;;;;;;;;;;;;;17.72;40.27;101073.44;10503576;28;19974;-72
2023/04/11 16:39:21;;;;;;;;;;;;;;;17.67;39.11;101085.38;10464451;28;19970;-72
2023/04/11 16:44:24;;;;;;;;;;;;;;;17.40;42.51;101076.09;10500714;28;19931;-72
2023/04/11 16:49:26;;;;;;;;;;;;;;;18.20;40.02;101066.81;10504868;28;19939;-73
2023/04/11 16:54:28;;;;;;;;;;;;;;;16.93;40.06;101062.25;10505268;28;19925;-72
2023/04/11 16:59:31;;;;;;;;;;;;;;;16.59;41.62;101065.75;10466075;28;19932;-72
2023/04/11 17:04:34;;;;;;;;;;;;;;;15.88;42.08;101060.63;10501505;28;19931;-72
2023/04/11 17:09:36;;;;;;;;;;;;;;;16.69;43.10;101071.16;10504695;28;19931;-72
2023/04/11 17:14:38;;;;;;;;;;;;;;;15.92;43.20;101058.59;10503928;28;20330;-72
2023/04/11 17:19:41;;;;;;;;;;;;;;;15.60;44.04;101045.97;10499010;28;20279;-72
2023/04/11 17:24:43;;;;;;;;;;;;;;;15.60;44.72;101043.34;10498140;28;20284;-71
2023/04/11 17:29:45;;;;;;;;;;;;;;;14.84;45.07;101027.78;10501552;28;20329;-71
2023/04/11 17:34:48;;;;;;;;;;;;;;;14.72;46.63;101030.44;10502132;28;19925;-71
2023/04/11 17:39:50;;;;;;;;;;;;;;;14.34;45.16;101034.78;10496848;28;19924;-71
2023/04/11 17:44:53;;;;;;;;;;;;;;;14.15;49.46;101031.72;10498582;28;20272;-71
2023/04/11 17:49:56;;;;;;;;;;;;;;;13.65;52.66;101027.16;10495454;28;19924;-72
2023/04/11 17:54:59;;;;;;;;;;;;;;;13.48;53.67;101016.91;10500186;28;19928;-71
2023/04/11 18:00:04;;;;;;;;;;;;;;;13.02;56.16;101011.03;10499842;28;19924;-71
2023/04/11 18:05:07;;;;;;;;;;;;;;;12.73;57.54;100993.69;10497926;28;20367;-72
2023/04/11 18:10:24;;;;;;;;;;;;;;;12.55;57.50;100998.28;10501657;28;19924;-71
2023/04/11 18:15:27;;;;;;;;;;;;;;;12.11;59.69;101002.72;10500939;28;19951;-71
2023/04/11 18:20:29;;;;;;;;;;;;;;;12.15;61.39;100998.13;10501930;28;19924;-71
2023/04/11 18:25:31;;;;;;;;;;;;;;;11.81;62.36;100998.31;10501923;28;19928;-71
2023/04/11 18:30:33;;;;;;;;;;;;;;;11.79;62.21;101000.19;10483446;28;20313;-71
2023/04/11 18:35:36;;;;;;;;;;;;;;;11.64;63.47;101006.34;10500303;28;19974;-71
2023/04/11 18:40:38;;;;;;;;;;;;;;;11.58;64.96;101004.09;10500503;28;19931;-70
2023/04/11 18:45:40;;;;;;;;;;;;;;;11.53;65.16;100989.47;10499786;28;19939;-71
2023/04/11 18:50:47;;;;;;;;;;;;;;;11.51;64.97;100987.88;10500720;28;19924;-70
2023/04/11 18:55:49;;;;;;;;;;;;;;;11.42;65.13;100985.78;10499152;28;19950;-71
2023/04/11 19:00:51;;;;;;;;;;;;;;;11.01;66.74;100987.22;10500363;28;19977;-71
2023/04/11 19:05:53;;;;;;;;;;;;;;;11.10;66.54;100981.44;10499579;28;19980;-70
2023/04/11 19:10:56;;;;;;;;;;;;;;;10.90;67.74;100979.94;10500030;28;19924;-70
2023/04/11 19:15:58;;;;;;;;;;;;;;;11.07;66.61;100976.38;10499077;28;19924;-70
2023/04/11 19:21:01;;;;;;;;;;;;;;;11.10;66.41;100975.38;10499017;28;20295;-70
2023/04/11 19:26:03;;;;;;;;;;;;;;;11.09;67.71;100961.41;10499579;28;19928;-70
2023/04/11 19:31:06;;;;;;;;;;;;;;;11.26;68.47;100949.97;10498983;28;19928;-70
2023/04/11 19:36:09;;;;;;;;;;;;;;;11.07;66.56;100957.19;10499242;28;19925;-70
2023/04/11 19:41:11;;;;;;;;;;;;;;;11.41;65.38;100953.47;10499194;28;19978;-71
2023/04/11 19:46:14;;;;;;;;;;;;;;;11.07;67.31;100941.47;10497178;28;19928;-70
2023/04/11 19:51:16;;;;;;;;;;;;;;;11.31;67.25;100939.22;10499178;28;19924;-71
2023/04/11 19:56:19;;;;;;;;;;;;;;;11.30;65.49;100930.50;10498798;28;19974;-70
2023/04/11 20:01:21;;;;;;;;;;;;;;;11.43;64.39;100920.16;10498221;28;19924;-70
2023/04/11 20:06:24;;;;;;;;;;;;;;;11.51;64.33;100906.56;10497569;28;19928;-70
2023/04/11 20:11:26;;;;;;;;;;;;;;;11.43;64.76;100911.44;10497863;28;20364;-70
2023/04/11 20:16:30;;;;;;;;;;;;;;;11.58;63.14;100884.28;10497783;28;20399;-70
2023/04/11 20:21:33;;;;;;;;;;;;;;;11.72;63.03;100870.38;10498385;28;19970;-69
2023/04/11 20:26:35;;;;;;;;;;;;;;;11.75;63.65;100871.94;10498777;28;19924;-70
2023/04/11 20:31:37;;;;;;;;;;;;;;;11.79;64.06;100862.97;10497341;28;19924;-69
2023/04/11 20:36:39;;;;;;;;;;;;;;;11.87;63.04;100856.31;10497279;28;19947;-70
2023/04/11 20:41:42;;;;;;;;;;;;;;;11.56;64.21;100865.19;10497928;28;19925;-70
2023/04/11 20:46:44;;;;;;;;;;;;;;;11.83;64.02;100853.97;10497231;28;19936;-70
2023/04/11 20:51:47;;;;;;;;;;;;;;;11.84;62.50;100832.88;10497765;28;19931;-70
2023/04/11 20:56:51;;;;;;;;;;;;;;;11.66;64.04;100831.38;10499085;28;19924;-70
2023/04/11 21:01:53;;;;;;;;;;;;;;;11.33;65.04;100812.38;10504984;28;20012;-70
2023/04/11 21:06:55;;;;;;;;;;;;;;;11.49;65.21;100795.72;10504334;28;19999;-70
2023/04/11 21:11:57;;;;;;;;;;;;;;;11.33;65.41;100780.06;10504724;28;19970;-69
2023/04/11 21:17:00;;;;;;;;;;;;;;;11.25;65.47;100761.38;10502596;28;20378;-70
2023/04/11 21:22:02;;;;;;;;;;;;;;;11.06;66.70;100765.09;10503715;28;20368;-70
2023/04/11 21:27:04;;;;;;;;;;;;;;;11.24;67.09;100749.19;10496205;28;19928;-70
2023/04/11 21:32:07;;;;;;;;;;;;;;;11.21;69.61;100744.13;10499451;28;20387;-70
2023/04/11 21:37:09;;;;;;;;;;;;;;;11.09;69.24;100745.72;10503465;28;19931;-70
2023/04/11 21:42:11;;;;;;;;;;;;;;;11.20;67.88;100724.13;10502832;28;19970;-70
2023/04/11 21:47:14;;;;;;;;;;;;;;;11.09;68.57;100716.91;10500664;28;19929;-70
2023/04/11 21:52:16;;;;;;;;;;;;;;;11.04;70.15;100717.16;10503262;28;19925;-70
2023/04/11 21:57:18;;;;;;;;;;;;;;;10.75;69.43;100727.63;10501199;28;19929;-70
2023/04/11 22:02:20;;;;;;;;;;;;;;;10.81;70.81;100713.34;10501539;28;19924;-72
2023/04/11 22:07:23;;;;;;;;;;;;;;;10.87;70.35;100696.41;10499267;28;19928;-71
2023/04/11 22:12:25;;;;;;;;;;;;;;;10.74;71.08;100689.28;10500392;28;19928;-72
2023/04/11 22:17:30;;;;;;;;;;;;;;;10.89;71.04;100679.66;10501096;28;19930;-70
2023/04/11 22:22:34;;;;;;;;;;;;;;;10.57;73.07;100673.72;10500299;28;19931;-70
2023/04/11 22:27:37;;;;;;;;;;;;;;;10.69;71.68;100666.91;10498950;28;20287;-72
2023/04/11 22:32:39;;;;;;;;;;;;;;;10.75;70.65;100658.69;10500976;28;19930;-69
2023/04/11 22:37:41;;;;;;;;;;;;;;;10.72;71.23;100659.72;10500372;28;19924;-71
2023/04/11 22:42:45;;;;;;;;;;;;;;;10.80;69.73;100648.78;10499481;28;19928;-70
2023/04/11 22:47:52;;;;;;;;;;;;;;;10.68;69.63;100646.91;10472426;22;19924;-66
2023/04/11 22:52:55;;;;;;;;;;;;;;;10.88;69.89;100636.06;10442592;28;20027;-66
2023/04/11 22:57:57;;;;;;;;;;;;;;;10.94;72.51;100622.59;10458350;28;19925;-67
2023/04/11 23:02:59;;;;;;;;;;;;;;;10.80;73.83;100617.34;10453935;28;19939;-67
2023/04/11 23:08:01;;;;;;;;;;;;;;;10.30;74.27;100603.72;10417683;28;19929;-66
2023/04/11 23:13:04;;;;;;;;;;;;;;;10.00;77.52;100591.53;10420157;28;19925;-67
2023/04/11 23:18:06;;;;;;;;;;;;;;;10.23;77.07;100578.84;10458430;28;19925;-68
2023/04/11 23:23:09;;;;;;;;;;;;;;;10.36;76.21;100566.75;10436242;28;19937;-67
2023/04/11 23:28:11;;;;;;;;;;;;;;;10.14;77.93;100571.56;10458279;28;19970;-67
2023/04/11 23:33:14;;;;;;;;;;;;;;;10.39;77.79;100550.03;10457496;28;19925;-67
2023/04/11 23:38:16;;;;;;;;;;;;;;;10.33;78.25;100540.78;10437915;28;19925;-66
2023/04/11 23:43:19;;;;;;;;;;;;;;;10.20;79.14;100537.19;10454591;28;19925;-67
2023/04/11 23:48:21;;;;;;;;;;;;;;;9.90;79.75;100538.09;10456823;28;19932;-67
2023/04/11 23:53:23;;;;;;;;;;;;;;;10.09;80.08;100523.91;10455895;28;19932;-66
2023/04/11 23:58:25;;;;;;;;;;;;;;;10.10;81.35;100522.97;10456667;28;19928;-66
